sensor_id;sensor_type;location;lat;lon;timestamp;P1;durP1;ratioP1;P2;durP2;ratioP2
19456;SDS011;9867;48.094;11.478;2023-02-15T00:01:25;54.57;;;16.03;;
19456;SDS011;9867;48.094;11.478;2023-02-15T00:03:52;42.17;;;16.43;;
19456;SDS011;9867;48.094;11.478;2023-02-15T00:06:18;167.67;;;18.20;;
19456;SDS011;9867;48.094;11.478;2023-02-15T00:08:45;59.97;;;16.23;;
19456;SDS011;9867;48.094;11.478;2023-02-15T00:11:12;254.60;;;23.33;;
19456;SDS011;9867;48.094;11.478;2023-02-15T00:13:40;123.37;;;18.80;;
19456;SDS011;9867;48.094;11.478;2023-02-15T00:16:07;51.83;;;17.77;;
19456;SDS011;9867;48.094;11.478;2023-02-15T00:18:36;47.00;;;15.80;;
19456;SDS011;9867;48.094;11.478;2023-02-15T00:21:03;52.63;;;15.80;;
19456;SDS011;9867;48.094;11.478;2023-02-15T00:23:31;59.57;;;16.70;;
19456;SDS011;9867;48.094;11.478;2023-02-15T00:26:05;64.17;;;17.43;;
19456;SDS011;9867;48.094;11.478;2023-02-15T00:28:32;45.53;;;16.07;;
19456;SDS011;9867;48.094;11.478;2023-02-15T00:31:03;47.90;;;15.87;;
19456;SDS011;9867;48.094;11.478;2023-02-15T00:33:30;29.43;;;15.37;;
19456;SDS011;9867;48.094;11.478;2023-02-15T00:35:58;32.47;;;14.33;;
19456;SDS011;9867;48.094;11.478;2023-02-15T00:38:26;57.87;;;14.23;;
19456;SDS011;9867;48.094;11.478;2023-02-15T00:40:54;69.93;;;14.97;;
19456;SDS011;9867;48.094;11.478;2023-02-15T00:43:21;185.43;;;17.23;;
19456;SDS011;9867;48.094;11.478;2023-02-15T00:45:48;184.27;;;19.23;;
19456;SDS011;9867;48.094;11.478;2023-02-15T00:48:14;96.87;;;16.67;;
19456;SDS011;9867;48.094;11.478;2023-02-15T00:50:41;119.80;;;17.87;;
19456;SDS011;9867;48.094;11.478;2023-02-15T00:53:08;66.50;;;16.03;;
19456;SDS011;9867;48.094;11.478;2023-02-15T00:55:34;34.00;;;14.60;;
19456;SDS011;9867;48.094;11.478;2023-02-15T00:58:01;31.73;;;13.70;;
19456;SDS011;9867;48.094;11.478;2023-02-15T01:00:27;54.77;;;14.40;;
19456;SDS011;9867;48.094;11.478;2023-02-15T01:02:55;28.63;;;13.50;;
19456;SDS011;9867;48.094;11.478;2023-02-15T01:05:22;45.63;;;14.27;;
19456;SDS011;9867;48.094;11.478;2023-02-15T01:07:48;101.67;;;15.87;;
19456;SDS011;9867;48.094;11.478;2023-02-15T01:10:15;20.10;;;13.47;;
19456;SDS011;9867;48.094;11.478;2023-02-15T01:12:42;40.33;;;13.30;;
19456;SDS011;9867;48.094;11.478;2023-02-15T01:15:08;37.77;;;14.03;;
19456;SDS011;9867;48.094;11.478;2023-02-15T01:17:36;60.03;;;14.40;;
19456;SDS011;9867;48.094;11.478;2023-02-15T01:20:03;34.27;;;14.10;;
19456;SDS011;9867;48.094;11.478;2023-02-15T01:22:30;65.70;;;15.27;;
19456;SDS011;9867;48.094;11.478;2023-02-15T01:24:56;50.67;;;13.50;;
19456;SDS011;9867;48.094;11.478;2023-02-15T01:27:23;65.67;;;14.13;;
19456;SDS011;9867;48.094;11.478;2023-02-15T01:29:50;38.80;;;14.27;;
19456;SDS011;9867;48.094;11.478;2023-02-15T01:32:16;41.47;;;15.03;;
19456;SDS011;9867;48.094;11.478;2023-02-15T01:34:43;64.10;;;14.47;;
19456;SDS011;9867;48.094;11.478;2023-02-15T01:37:09;36.57;;;13.43;;
19456;SDS011;9867;48.094;11.478;2023-02-15T01:39:36;39.97;;;14.03;;
19456;SDS011;9867;48.094;11.478;2023-02-15T01:42:02;48.73;;;13.30;;
19456;SDS011;9867;48.094;11.478;2023-02-15T01:47:25;124.67;;;15.63;;
19456;SDS011;9867;48.094;11.478;2023-02-15T01:50:00;60.80;;;12.07;;
19456;SDS011;9867;48.094;11.478;2023-02-15T01:52:32;46.97;;;13.33;;
19456;SDS011;9867;48.094;11.478;2023-02-15T01:55:00;34.10;;;13.40;;
19456;SDS011;9867;48.094;11.478;2023-02-15T01:57:28;37.43;;;13.00;;
19456;SDS011;9867;48.094;11.478;2023-02-15T01:59:56;27.07;;;12.43;;
19456;SDS011;9867;48.094;11.478;2023-02-15T02:02:37;25.43;;;11.83;;
19456;SDS011;9867;48.094;11.478;2023-02-15T02:05:05;53.37;;;12.37;;
19456;SDS011;9867;48.094;11.478;2023-02-15T02:07:33;99.93;;;13.10;;
19456;SDS011;9867;48.094;11.478;2023-02-15T02:10:05;85.23;;;12.57;;
19456;SDS011;9867;48.094;11.478;2023-02-15T02:12:33;27.97;;;12.30;;
19456;SDS011;9867;48.094;11.478;2023-02-15T02:15:03;32.90;;;12.00;;
19456;SDS011;9867;48.094;11.478;2023-02-15T02:17:31;38.47;;;11.43;;
19456;SDS011;9867;48.094;11.478;2023-02-15T02:23:23;88.13;;;13.43;;
19456;SDS011;9867;48.094;11.478;2023-02-15T02:26:13;19.10;;;11.40;;
19456;SDS011;9867;48.094;11.478;2023-02-15T02:29:09;36.77;;;11.63;;
19456;SDS011;9867;48.094;11.478;2023-02-15T02:35:22;59.40;;;12.20;;
19456;SDS011;9867;48.094;11.478;2023-02-15T02:38:00;28.83;;;11.60;;
19456;SDS011;9867;48.094;11.478;2023-02-15T02:40:48;65.83;;;12.60;;
19456;SDS011;9867;48.094;11.478;2023-02-15T02:43:21;60.87;;;12.37;;
19456;SDS011;9867;48.094;11.478;2023-02-15T02:45:55;65.83;;;13.00;;
19456;SDS011;9867;48.094;11.478;2023-02-15T02:48:27;32.93;;;12.13;;
19456;SDS011;9867;48.094;11.478;2023-02-15T02:50:57;23.43;;;11.37;;
19456;SDS011;9867;48.094;11.478;2023-02-15T02:53:27;19.97;;;11.33;;
19456;SDS011;9867;48.094;11.478;2023-02-15T02:55:57;77.30;;;13.40;;
19456;SDS011;9867;48.094;11.478;2023-02-15T02:58:30;138.93;;;13.77;;
19456;SDS011;9867;48.094;11.478;2023-02-15T03:01:03;42.03;;;10.97;;
19456;SDS011;9867;48.094;11.478;2023-02-15T03:03:35;51.60;;;12.60;;
19456;SDS011;9867;48.094;11.478;2023-02-15T03:06:05;81.33;;;12.47;;
19456;SDS011;9867;48.094;11.478;2023-02-15T03:08:36;87.50;;;12.90;;
19456;SDS011;9867;48.094;11.478;2023-02-15T03:11:07;30.03;;;10.67;;
19456;SDS011;9867;48.094;11.478;2023-02-15T03:13:35;40.07;;;11.33;;
19456;SDS011;9867;48.094;11.478;2023-02-15T03:16:04;16.87;;;10.50;;
19456;SDS011;9867;48.094;11.478;2023-02-15T03:18:51;96.20;;;13.77;;
19456;SDS011;9867;48.094;11.478;2023-02-15T03:21:26;54.37;;;12.10;;
19456;SDS011;9867;48.094;11.478;2023-02-15T03:23:58;72.50;;;12.63;;
19456;SDS011;9867;48.094;11.478;2023-02-15T03:26:30;61.23;;;11.90;;
19456;SDS011;9867;48.094;11.478;2023-02-15T03:28:57;35.67;;;12.00;;
19456;SDS011;9867;48.094;11.478;2023-02-15T03:31:27;23.67;;;11.63;;
19456;SDS011;9867;48.094;11.478;2023-02-15T03:33:58;18.13;;;11.37;;
19456;SDS011;9867;48.094;11.478;2023-02-15T03:36:28;61.67;;;11.50;;
19456;SDS011;9867;48.094;11.478;2023-02-15T03:39:04;57.43;;;12.20;;
19456;SDS011;9867;48.094;11.478;2023-02-15T03:41:37;72.13;;;13.20;;
19456;SDS011;9867;48.094;11.478;2023-02-15T03:44:08;105.30;;;14.00;;
19456;SDS011;9867;48.094;11.478;2023-02-15T03:46:40;112.93;;;14.07;;
19456;SDS011;9867;48.094;11.478;2023-02-15T03:49:12;53.50;;;11.67;;
19456;SDS011;9867;48.094;11.478;2023-02-15T03:51:44;64.40;;;12.40;;
19456;SDS011;9867;48.094;11.478;2023-02-15T03:54:14;74.17;;;13.17;;
19456;SDS011;9867;48.094;11.478;2023-02-15T03:57:12;114.97;;;14.80;;
19456;SDS011;9867;48.094;11.478;2023-02-15T03:59:59;177.77;;;16.70;;
19456;SDS011;9867;48.094;11.478;2023-02-15T04:02:53;102.30;;;14.00;;
19456;SDS011;9867;48.094;11.478;2023-02-15T04:05:30;103.70;;;14.53;;
19456;SDS011;9867;48.094;11.478;2023-02-15T04:07:57;111.47;;;13.90;;
19456;SDS011;9867;48.094;11.478;2023-02-15T04:10:24;116.40;;;14.23;;
19456;SDS011;9867;48.094;11.478;2023-02-15T04:13:08;108.63;;;16.27;;
19456;SDS011;9867;48.094;11.478;2023-02-15T04:15:35;147.00;;;14.93;;
19456;SDS011;9867;48.094;11.478;2023-02-15T04:18:19;59.87;;;13.50;;
19456;SDS011;9867;48.094;11.478;2023-02-15T04:20:46;126.40;;;16.67;;
19456;SDS011;9867;48.094;11.478;2023-02-15T04:23:31;69.40;;;13.50;;
19456;SDS011;9867;48.094;11.478;2023-02-15T04:26:16;26.63;;;12.13;;
19456;SDS011;9867;48.094;11.478;2023-02-15T04:28:42;59.37;;;13.57;;
19456;SDS011;9867;48.094;11.478;2023-02-15T04:31:09;53.70;;;12.70;;
19456;SDS011;9867;48.094;11.478;2023-02-15T04:33:35;37.93;;;12.33;;
19456;SDS011;9867;48.094;11.478;2023-02-15T04:36:02;32.70;;;18.27;;
19456;SDS011;9867;48.094;11.478;2023-02-15T04:38:29;101.07;;;13.23;;
19456;SDS011;9867;48.094;11.478;2023-02-15T04:40:56;41.23;;;11.33;;
19456;SDS011;9867;48.094;11.478;2023-02-15T04:43:22;85.37;;;11.37;;
19456;SDS011;9867;48.094;11.478;2023-02-15T04:45:49;101.60;;;13.13;;
19456;SDS011;9867;48.094;11.478;2023-02-15T04:48:16;88.97;;;13.20;;
19456;SDS011;9867;48.094;11.478;2023-02-15T04:50:42;61.53;;;12.27;;
19456;SDS011;9867;48.094;11.478;2023-02-15T04:53:09;144.20;;;13.33;;
19456;SDS011;9867;48.094;11.478;2023-02-15T04:55:36;53.70;;;11.60;;
19456;SDS011;9867;48.094;11.478;2023-02-15T04:58:04;26.77;;;12.00;;
19456;SDS011;9867;48.094;11.478;2023-02-15T05:00:30;36.27;;;10.87;;
19456;SDS011;9867;48.094;11.478;2023-02-15T05:02:56;42.67;;;11.73;;
19456;SDS011;9867;48.094;11.478;2023-02-15T05:05:23;37.27;;;11.47;;
19456;SDS011;9867;48.094;11.478;2023-02-15T05:07:49;48.47;;;11.90;;
19456;SDS011;9867;48.094;11.478;2023-02-15T05:10:15;51.13;;;12.50;;
19456;SDS011;9867;48.094;11.478;2023-02-15T05:12:42;37.77;;;12.43;;
19456;SDS011;9867;48.094;11.478;2023-02-15T05:15:09;23.13;;;11.50;;
19456;SDS011;9867;48.094;11.478;2023-02-15T05:17:36;32.47;;;12.03;;
19456;SDS011;9867;48.094;11.478;2023-02-15T05:20:02;87.67;;;12.73;;
19456;SDS011;9867;48.094;11.478;2023-02-15T05:22:29;60.63;;;12.60;;
19456;SDS011;9867;48.094;11.478;2023-02-15T05:24:56;63.70;;;12.20;;
19456;SDS011;9867;48.094;11.478;2023-02-15T05:27:41;29.50;;;12.30;;
19456;SDS011;9867;48.094;11.478;2023-02-15T05:30:26;37.40;;;12.83;;
19456;SDS011;9867;48.094;11.478;2023-02-15T05:32:53;25.87;;;10.40;;
19456;SDS011;9867;48.094;11.478;2023-02-15T05:35:19;39.00;;;11.40;;
19456;SDS011;9867;48.094;11.478;2023-02-15T05:37:46;23.83;;;11.07;;
19456;SDS011;9867;48.094;11.478;2023-02-15T05:40:12;55.57;;;14.00;;
19456;SDS011;9867;48.094;11.478;2023-02-15T05:42:38;86.20;;;14.80;;
19456;SDS011;9867;48.094;11.478;2023-02-15T05:45:05;48.20;;;13.00;;
19456;SDS011;9867;48.094;11.478;2023-02-15T05:47:33;23.87;;;12.57;;
19456;SDS011;9867;48.094;11.478;2023-02-15T05:49:59;34.70;;;12.87;;
19456;SDS011;9867;48.094;11.478;2023-02-15T05:52:26;49.43;;;13.60;;
19456;SDS011;9867;48.094;11.478;2023-02-15T05:54:52;36.63;;;12.50;;
19456;SDS011;9867;48.094;11.478;2023-02-15T05:57:19;26.17;;;12.07;;
19456;SDS011;9867;48.094;11.478;2023-02-15T05:59:46;30.17;;;12.07;;
19456;SDS011;9867;48.094;11.478;2023-02-15T06:02:12;60.33;;;13.50;;
19456;SDS011;9867;48.094;11.478;2023-02-15T06:04:39;29.20;;;11.93;;
19456;SDS011;9867;48.094;11.478;2023-02-15T06:07:05;32.67;;;11.93;;
19456;SDS011;9867;48.094;11.478;2023-02-15T06:09:32;58.80;;;11.60;;
19456;SDS011;9867;48.094;11.478;2023-02-15T06:11:58;80.87;;;13.40;;
19456;SDS011;9867;48.094;11.478;2023-02-15T06:14:25;25.80;;;11.77;;
19456;SDS011;9867;48.094;11.478;2023-02-15T06:16:51;55.23;;;12.27;;
19456;SDS011;9867;48.094;11.478;2023-02-15T06:19:17;110.23;;;15.23;;
19456;SDS011;9867;48.094;11.478;2023-02-15T06:21:45;35.77;;;12.13;;
19456;SDS011;9867;48.094;11.478;2023-02-15T06:24:11;40.37;;;11.03;;
19456;SDS011;9867;48.094;11.478;2023-02-15T06:26:37;16.70;;;11.07;;
19456;SDS011;9867;48.094;11.478;2023-02-15T06:29:04;11.90;;;10.70;;
19456;SDS011;9867;48.094;11.478;2023-02-15T06:31:31;13.97;;;10.27;;
19456;SDS011;9867;48.094;11.478;2023-02-15T06:34:00;17.00;;;11.07;;
19456;SDS011;9867;48.094;11.478;2023-02-15T06:36:26;15.77;;;11.17;;
19456;SDS011;9867;48.094;11.478;2023-02-15T06:38:55;13.13;;;11.07;;
19456;SDS011;9867;48.094;11.478;2023-02-15T06:41:22;16.63;;;10.93;;
19456;SDS011;9867;48.094;11.478;2023-02-15T06:43:49;13.67;;;11.07;;
19456;SDS011;9867;48.094;11.478;2023-02-15T06:46:16;13.93;;;10.70;;
19456;SDS011;9867;48.094;11.478;2023-02-15T06:48:42;11.63;;;10.43;;
19456;SDS011;9867;48.094;11.478;2023-02-15T06:51:09;12.87;;;11.40;;
19456;SDS011;9867;48.094;11.478;2023-02-15T06:53:35;11.73;;;10.50;;
19456;SDS011;9867;48.094;11.478;2023-02-15T06:56:02;12.30;;;11.00;;
19456;SDS011;9867;48.094;11.478;2023-02-15T06:58:33;11.90;;;10.77;;
19456;SDS011;9867;48.094;11.478;2023-02-15T07:01:00;11.90;;;10.70;;
19456;SDS011;9867;48.094;11.478;2023-02-15T07:03:26;12.03;;;10.80;;
19456;SDS011;9867;48.094;11.478;2023-02-15T07:05:54;11.67;;;10.57;;
19456;SDS011;9867;48.094;11.478;2023-02-15T07:08:20;11.40;;;10.30;;
19456;SDS011;9867;48.094;11.478;2023-02-15T07:10:48;14.83;;;11.17;;
19456;SDS011;9867;48.094;11.478;2023-02-15T07:13:15;17.43;;;11.40;;
19456;SDS011;9867;48.094;11.478;2023-02-15T07:15:42;11.97;;;10.63;;
19456;SDS011;9867;48.094;11.478;2023-02-15T07:18:09;12.13;;;10.90;;
19456;SDS011;9867;48.094;11.478;2023-02-15T07:20:36;12.77;;;11.43;;
19456;SDS011;9867;48.094;11.478;2023-02-15T07:23:03;11.50;;;10.30;;
19456;SDS011;9867;48.094;11.478;2023-02-15T07:25:30;13.07;;;11.33;;
19456;SDS011;9867;48.094;11.478;2023-02-15T07:27:57;13.43;;;12.03;;
19456;SDS011;9867;48.094;11.478;2023-02-15T07:30:25;13.13;;;11.73;;
19456;SDS011;9867;48.094;11.478;2023-02-15T07:32:54;14.37;;;12.87;;
19456;SDS011;9867;48.094;11.478;2023-02-15T07:35:45;12.23;;;11.03;;
19456;SDS011;9867;48.094;11.478;2023-02-15T07:38:12;12.87;;;11.43;;
19456;SDS011;9867;48.094;11.478;2023-02-15T07:40:39;12.87;;;11.30;;
19456;SDS011;9867;48.094;11.478;2023-02-15T07:43:05;12.33;;;11.07;;
19456;SDS011;9867;48.094;11.478;2023-02-15T07:45:32;14.20;;;11.33;;
19456;SDS011;9867;48.094;11.478;2023-02-15T07:47:59;12.70;;;11.40;;
19456;SDS011;9867;48.094;11.478;2023-02-15T07:50:26;13.80;;;11.27;;
19456;SDS011;9867;48.094;11.478;2023-02-15T07:52:52;14.80;;;11.70;;
19456;SDS011;9867;48.094;11.478;2023-02-15T07:55:19;13.30;;;11.97;;
19456;SDS011;9867;48.094;11.478;2023-02-15T07:57:46;11.83;;;10.33;;
19456;SDS011;9867;48.094;11.478;2023-02-15T08:00:14;15.53;;;12.20;;
19456;SDS011;9867;48.094;11.478;2023-02-15T08:02:43;13.07;;;11.80;;
19456;SDS011;9867;48.094;11.478;2023-02-15T08:05:14;12.60;;;11.10;;
19456;SDS011;9867;48.094;11.478;2023-02-15T08:07:42;13.30;;;11.73;;
19456;SDS011;9867;48.094;11.478;2023-02-15T08:10:09;13.67;;;12.27;;
19456;SDS011;9867;48.094;11.478;2023-02-15T08:12:55;15.43;;;11.40;;
19456;SDS011;9867;48.094;11.478;2023-02-15T08:15:21;12.77;;;11.47;;
19456;SDS011;9867;48.094;11.478;2023-02-15T08:17:48;14.17;;;11.53;;
19456;SDS011;9867;48.094;11.478;2023-02-15T08:20:15;11.93;;;10.17;;
19456;SDS011;9867;48.094;11.478;2023-02-15T08:22:41;11.03;;;9.93;;
19456;SDS011;9867;48.094;11.478;2023-02-15T08:25:08;12.73;;;11.47;;
19456;SDS011;9867;48.094;11.478;2023-02-15T08:27:34;11.87;;;10.67;;
19456;SDS011;9867;48.094;11.478;2023-02-15T08:30:00;11.90;;;10.70;;
19456;SDS011;9867;48.094;11.478;2023-02-15T08:32:27;14.23;;;11.40;;
19456;SDS011;9867;48.094;11.478;2023-02-15T08:34:54;12.67;;;11.37;;
19456;SDS011;9867;48.094;11.478;2023-02-15T08:37:20;14.60;;;13.03;;
19456;SDS011;9867;48.094;11.478;2023-02-15T08:39:47;14.40;;;12.47;;
19456;SDS011;9867;48.094;11.478;2023-02-15T08:42:13;15.63;;;12.50;;
19456;SDS011;9867;48.094;11.478;2023-02-15T08:44:39;14.47;;;12.97;;
19456;SDS011;9867;48.094;11.478;2023-02-15T08:47:06;14.60;;;13.10;;
19456;SDS011;9867;48.094;11.478;2023-02-15T08:49:32;13.40;;;12.10;;
19456;SDS011;9867;48.094;11.478;2023-02-15T08:51:59;13.27;;;11.80;;
19456;SDS011;9867;48.094;11.478;2023-02-15T08:54:26;13.70;;;12.30;;
19456;SDS011;9867;48.094;11.478;2023-02-15T08:56:52;13.47;;;12.17;;
19456;SDS011;9867;48.094;11.478;2023-02-15T08:59:20;13.43;;;12.13;;
19456;SDS011;9867;48.094;11.478;2023-02-15T09:01:48;13.30;;;11.90;;
19456;SDS011;9867;48.094;11.478;2023-02-15T09:04:16;14.47;;;13.03;;
19456;SDS011;9867;48.094;11.478;2023-02-15T09:06:43;13.50;;;12.20;;
19456;SDS011;9867;48.094;11.478;2023-02-15T09:09:14;13.37;;;12.07;;
19456;SDS011;9867;48.094;11.478;2023-02-15T09:11:42;14.00;;;12.67;;
19456;SDS011;9867;48.094;11.478;2023-02-15T09:14:11;14.27;;;12.93;;
19456;SDS011;9867;48.094;11.478;2023-02-15T09:16:39;14.77;;;13.27;;
19456;SDS011;9867;48.094;11.478;2023-02-15T09:19:07;14.80;;;13.27;;
19456;SDS011;9867;48.094;11.478;2023-02-15T09:21:35;14.10;;;12.80;;
19456;SDS011;9867;48.094;11.478;2023-02-15T09:24:04;14.23;;;12.83;;
19456;SDS011;9867;48.094;11.478;2023-02-15T09:26:34;22.53;;;14.07;;
19456;SDS011;9867;48.094;11.478;2023-02-15T09:29:02;14.63;;;13.30;;
19456;SDS011;9867;48.094;11.478;2023-02-15T09:31:30;14.17;;;12.67;;
19456;SDS011;9867;48.094;11.478;2023-02-15T09:33:58;15.00;;;13.60;;
19456;SDS011;9867;48.094;11.478;2023-02-15T09:36:28;16.13;;;14.63;;
19456;SDS011;9867;48.094;11.478;2023-02-15T09:38:56;15.70;;;13.87;;
19456;SDS011;9867;48.094;11.478;2023-02-15T09:44:25;15.80;;;14.30;;
19456;SDS011;9867;48.094;11.478;2023-02-15T09:47:03;15.77;;;14.23;;
19456;SDS011;9867;48.094;11.478;2023-02-15T09:49:44;15.67;;;13.77;;
19456;SDS011;9867;48.094;11.478;2023-02-15T09:52:38;15.10;;;13.60;;
19456;SDS011;9867;48.094;11.478;2023-02-15T09:55:27;15.13;;;13.50;;
19456;SDS011;9867;48.094;11.478;2023-02-15T09:58:07;16.10;;;14.37;;
19456;SDS011;9867;48.094;11.478;2023-02-15T10:00:46;17.10;;;14.13;;
19456;SDS011;9867;48.094;11.478;2023-02-15T10:03:25;15.90;;;14.17;;
19456;SDS011;9867;48.094;11.478;2023-02-15T10:06:07;18.97;;;13.43;;
19456;SDS011;9867;48.094;11.478;2023-02-15T10:08:52;15.07;;;13.53;;
19456;SDS011;9867;48.094;11.478;2023-02-15T10:11:27;17.37;;;14.63;;
19456;SDS011;9867;48.094;11.478;2023-02-15T10:14:15;21.70;;;14.73;;
19456;SDS011;9867;48.094;11.478;2023-02-15T10:16:55;14.83;;;13.33;;
19456;SDS011;9867;48.094;11.478;2023-02-15T10:19:32;16.37;;;13.37;;
19456;SDS011;9867;48.094;11.478;2023-02-15T10:22:09;15.90;;;13.70;;
19456;SDS011;9867;48.094;11.478;2023-02-15T10:25:01;14.73;;;13.07;;
19456;SDS011;9867;48.094;11.478;2023-02-15T10:27:57;13.87;;;12.40;;
19456;SDS011;9867;48.094;11.478;2023-02-15T10:30:32;14.97;;;12.73;;
19456;SDS011;9867;48.094;11.478;2023-02-15T10:33:09;14.63;;;12.53;;
19456;SDS011;9867;48.094;11.478;2023-02-15T10:35:45;13.53;;;12.20;;
19456;SDS011;9867;48.094;11.478;2023-02-15T10:38:20;27.27;;;13.03;;
19456;SDS011;9867;48.094;11.478;2023-02-15T10:40:57;14.17;;;12.67;;
19456;SDS011;9867;48.094;11.478;2023-02-15T10:43:41;17.00;;;12.63;;
19456;SDS011;9867;48.094;11.478;2023-02-15T10:46:26;14.10;;;12.60;;
19456;SDS011;9867;48.094;11.478;2023-02-15T10:49:14;15.10;;;12.57;;
19456;SDS011;9867;48.094;11.478;2023-02-15T10:51:55;15.37;;;13.17;;
19456;SDS011;9867;48.094;11.478;2023-02-15T10:54:32;15.07;;;12.27;;
19456;SDS011;9867;48.094;11.478;2023-02-15T10:57:08;15.00;;;12.70;;
19456;SDS011;9867;48.094;11.478;2023-02-15T10:59:50;13.60;;;11.67;;
19456;SDS011;9867;48.094;11.478;2023-02-15T11:02:30;15.20;;;12.27;;
19456;SDS011;9867;48.094;11.478;2023-02-15T11:05:16;15.70;;;13.00;;
19456;SDS011;9867;48.094;11.478;2023-02-15T11:07:52;13.97;;;12.47;;
19456;SDS011;9867;48.094;11.478;2023-02-15T11:10:25;17.77;;;12.23;;
19456;SDS011;9867;48.094;11.478;2023-02-15T11:12:56;16.27;;;12.73;;
19456;SDS011;9867;48.094;11.478;2023-02-15T11:15:25;19.60;;;12.90;;
19456;SDS011;9867;48.094;11.478;2023-02-15T11:17:58;18.83;;;12.60;;
19456;SDS011;9867;48.094;11.478;2023-02-15T11:20:30;15.80;;;12.93;;
19456;SDS011;9867;48.094;11.478;2023-02-15T11:23:01;17.47;;;13.40;;
19456;SDS011;9867;48.094;11.478;2023-02-15T11:25:29;19.23;;;13.20;;
19456;SDS011;9867;48.094;11.478;2023-02-15T11:27:58;22.63;;;13.50;;
19456;SDS011;9867;48.094;11.478;2023-02-15T11:30:33;14.53;;;12.97;;
19456;SDS011;9867;48.094;11.478;2023-02-15T11:33:13;15.13;;;12.90;;
19456;SDS011;9867;48.094;11.478;2023-02-15T11:35:47;14.93;;;13.33;;
19456;SDS011;9867;48.094;11.478;2023-02-15T11:38:20;18.20;;;12.57;;
19456;SDS011;9867;48.094;11.478;2023-02-15T11:40:50;14.17;;;12.63;;
19456;SDS011;9867;48.094;11.478;2023-02-15T11:43:23;15.93;;;12.40;;
19456;SDS011;9867;48.094;11.478;2023-02-15T11:45:54;17.93;;;12.93;;
19456;SDS011;9867;48.094;11.478;2023-02-15T11:48:21;13.33;;;11.93;;
19456;SDS011;9867;48.094;11.478;2023-02-15T11:50:48;14.17;;;12.63;;
19456;SDS011;9867;48.094;11.478;2023-02-15T11:53:16;17.67;;;13.10;;
19456;SDS011;9867;48.094;11.478;2023-02-15T11:55:45;14.10;;;12.33;;
19456;SDS011;9867;48.094;11.478;2023-02-15T11:58:21;17.37;;;12.90;;
19456;SDS011;9867;48.094;11.478;2023-02-15T12:00:55;15.77;;;13.07;;
19456;SDS011;9867;48.094;11.478;2023-02-15T12:03:28;18.73;;;12.17;;
19456;SDS011;9867;48.094;11.478;2023-02-15T12:06:05;17.00;;;11.87;;
19456;SDS011;9867;48.094;11.478;2023-02-15T12:08:42;17.10;;;13.20;;
19456;SDS011;9867;48.094;11.478;2023-02-15T12:11:17;15.27;;;12.87;;
19456;SDS011;9867;48.094;11.478;2023-02-15T12:13:56;14.53;;;12.30;;
19456;SDS011;9867;48.094;11.478;2023-02-15T12:16:24;15.33;;;12.73;;
19456;SDS011;9867;48.094;11.478;2023-02-15T12:18:52;16.30;;;11.57;;
19456;SDS011;9867;48.094;11.478;2023-02-15T12:21:25;18.00;;;12.10;;
19456;SDS011;9867;48.094;11.478;2023-02-15T12:23:55;13.23;;;11.90;;
19456;SDS011;9867;48.094;11.478;2023-02-15T12:26:26;16.53;;;12.00;;
19456;SDS011;9867;48.094;11.478;2023-02-15T12:28:55;15.00;;;12.60;;
19456;SDS011;9867;48.094;11.478;2023-02-15T12:31:27;16.37;;;12.17;;
19456;SDS011;9867;48.094;11.478;2023-02-15T12:33:59;17.27;;;12.07;;
19456;SDS011;9867;48.094;11.478;2023-02-15T12:36:29;18.00;;;11.47;;
19456;SDS011;9867;48.094;11.478;2023-02-15T12:39:17;15.67;;;11.63;;
19456;SDS011;9867;48.094;11.478;2023-02-15T12:41:57;13.60;;;10.90;;
19456;SDS011;9867;48.094;11.478;2023-02-15T12:44:26;14.13;;;10.90;;
19456;SDS011;9867;48.094;11.478;2023-02-15T12:46:58;15.37;;;11.20;;
19456;SDS011;9867;48.094;11.478;2023-02-15T12:49:26;16.50;;;12.80;;
19456;SDS011;9867;48.094;11.478;2023-02-15T12:51:54;19.67;;;12.90;;
19456;SDS011;9867;48.094;11.478;2023-02-15T12:54:29;13.53;;;11.27;;
19456;SDS011;9867;48.094;11.478;2023-02-15T12:57:15;12.23;;;11.03;;
19456;SDS011;9867;48.094;11.478;2023-02-15T12:59:49;14.13;;;11.40;;
19456;SDS011;9867;48.094;11.478;2023-02-15T13:02:19;14.70;;;11.27;;
19456;SDS011;9867;48.094;11.478;2023-02-15T13:04:49;19.10;;;11.50;;
19456;SDS011;9867;48.094;11.478;2023-02-15T13:07:17;19.90;;;12.53;;
19456;SDS011;9867;48.094;11.478;2023-02-15T13:09:43;21.00;;;12.73;;
19456;SDS011;9867;48.094;11.478;2023-02-15T13:12:11;15.83;;;12.83;;
19456;SDS011;9867;48.094;11.478;2023-02-15T13:14:43;19.47;;;12.83;;
19456;SDS011;9867;48.094;11.478;2023-02-15T13:17:11;19.87;;;12.80;;
19456;SDS011;9867;48.094;11.478;2023-02-15T13:19:40;20.07;;;13.43;;
19456;SDS011;9867;48.094;11.478;2023-02-15T13:22:12;16.67;;;14.17;;
19456;SDS011;9867;48.094;11.478;2023-02-15T13:24:41;20.43;;;14.70;;
19456;SDS011;9867;48.094;11.478;2023-02-15T13:27:12;21.20;;;14.37;;
19456;SDS011;9867;48.094;11.478;2023-02-15T13:29:43;26.57;;;14.93;;
19456;SDS011;9867;48.094;11.478;2023-02-15T13:32:12;20.43;;;15.63;;
19456;SDS011;9867;48.094;11.478;2023-02-15T13:34:51;19.07;;;16.23;;
19456;SDS011;9867;48.094;11.478;2023-02-15T13:37:30;26.07;;;17.43;;
19456;SDS011;9867;48.094;11.478;2023-02-15T13:40:12;22.27;;;17.53;;
19456;SDS011;9867;48.094;11.478;2023-02-15T13:42:41;23.40;;;18.27;;
19456;SDS011;9867;48.094;11.478;2023-02-15T13:45:20;24.23;;;17.00;;
19456;SDS011;9867;48.094;11.478;2023-02-15T13:47:57;19.03;;;16.57;;
19456;SDS011;9867;48.094;11.478;2023-02-15T13:50:34;21.60;;;16.43;;
19456;SDS011;9867;48.094;11.478;2023-02-15T13:53:16;20.83;;;15.83;;
19456;SDS011;9867;48.094;11.478;2023-02-15T13:56:02;23.57;;;16.43;;
19456;SDS011;9867;48.094;11.478;2023-02-15T13:58:43;25.13;;;16.43;;
19456;SDS011;9867;48.094;11.478;2023-02-15T14:01:26;27.33;;;16.60;;
19456;SDS011;9867;48.094;11.478;2023-02-15T14:04:10;26.77;;;15.07;;
19456;SDS011;9867;48.094;11.478;2023-02-15T14:07:16;24.47;;;15.63;;
19456;SDS011;9867;48.094;11.478;2023-02-15T14:10:10;19.93;;;15.33;;
19456;SDS011;9867;48.094;11.478;2023-02-15T14:12:58;24.53;;;15.80;;
19456;SDS011;9867;48.094;11.478;2023-02-15T14:15:44;23.40;;;15.40;;
19456;SDS011;9867;48.094;11.478;2023-02-15T14:18:16;20.47;;;14.63;;
19456;SDS011;9867;48.094;11.478;2023-02-15T14:20:51;22.07;;;15.17;;
19456;SDS011;9867;48.094;11.478;2023-02-15T14:23:29;20.80;;;14.93;;
19456;SDS011;9867;48.094;11.478;2023-02-15T14:26:11;25.30;;;15.73;;
19456;SDS011;9867;48.094;11.478;2023-02-15T14:28:45;18.53;;;14.60;;
19456;SDS011;9867;48.094;11.478;2023-02-15T14:31:17;22.07;;;14.80;;
19456;SDS011;9867;48.094;11.478;2023-02-15T14:33:53;21.60;;;15.13;;
19456;SDS011;9867;48.094;11.478;2023-02-15T14:36:21;16.77;;;13.70;;
19456;SDS011;9867;48.094;11.478;2023-02-15T14:38:53;18.67;;;13.10;;
19456;SDS011;9867;48.094;11.478;2023-02-15T14:41:26;19.60;;;13.10;;
19456;SDS011;9867;48.094;11.478;2023-02-15T14:44:00;20.03;;;13.07;;
19456;SDS011;9867;48.094;11.478;2023-02-15T14:46:34;20.07;;;13.13;;
19456;SDS011;9867;48.094;11.478;2023-02-15T14:49:10;24.60;;;13.40;;
19456;SDS011;9867;48.094;11.478;2023-02-15T14:57:27;19.43;;;13.83;;
19456;SDS011;9867;48.094;11.478;2023-02-15T15:00:01;19.33;;;13.57;;
19456;SDS011;9867;48.094;11.478;2023-02-15T15:03:11;19.97;;;13.33;;
19456;SDS011;9867;48.094;11.478;2023-02-15T15:05:47;20.37;;;13.30;;